Time;durP1;ratioP1;P1;durP2;ratioP2;P2;SDS_P1;SDS_P2;PMS_P1;PMS_P2;Temp;Humidity;BMP_temperature;BMP_pressure;BME280_temperature;BME280_humidity;BME280_pressure;Samples;Min_cycle;Max_cycle;Signal;HPM_P1;HPM_P2
2020/12/21 00:01:20;;;;;;;21.10;10.13;;;7.50;99.90;;;;;;4916979;28;20523;-71
2020/12/21 00:03:45;;;;;;;15.83;9.97;;;7.50;99.90;;;;;;4904244;29;20474;-71
2020/12/21 00:06:15;;;;;;;24.60;11.20;;;7.50;99.90;;;;;;4886018;29;20445;-71
2020/12/21 00:08:41;;;;;;;17.87;10.07;;;7.50;99.90;;;;;;4918215;29;20239;-73
2020/12/21 00:11:07;;;;;;;16.67;9.40;;;7.50;99.90;;;;;;4918617;29;20457;-71
2020/12/21 00:13:33;;;;;;;22.07;11.77;;;7.50;99.90;;;;;;4918245;29;20464;-72
2020/12/21 00:15:59;;;;;;;24.67;11.67;;;7.50;99.90;;;;;;4912826;28;20225;-71
2020/12/21 00:18:25;;;;;;;28.17;13.57;;;7.50;99.90;;;;;;4931697;28;20242;-71
2020/12/21 00:20:50;;;;;;;27.00;15.00;;;7.50;99.90;;;;;;4921193;29;20231;-70
2020/12/21 00:23:16;;;;;;;33.67;16.03;;;7.40;99.90;;;;;;4919734;29;20223;-71
2020/12/21 00:25:42;;;;;;;34.63;17.70;;;7.40;99.90;;;;;;4932896;29;20756;-71
2020/12/21 00:28:08;;;;;;;40.60;18.33;;;7.50;99.90;;;;;;4922710;29;20243;-71
2020/12/21 00:30:34;;;;;;;28.60;17.07;;;7.40;99.90;;;;;;4935614;28;20223;-72
2020/12/21 00:33:00;;;;;;;23.10;12.33;;;7.40;99.90;;;;;;4939388;29;20474;-71
2020/12/21 00:35:27;;;;;;;17.47;10.23;;;7.40;99.90;;;;;;4924562;29;20546;-72
2020/12/21 00:37:53;;;;;;;14.43;8.50;;;7.40;99.90;;;;;;4889100;29;20220;-71
2020/12/21 00:40:19;;;;;;;12.60;8.03;;;7.40;99.90;;;;;;4911975;29;20456;-71
2020/12/21 00:42:45;;;;;;;13.73;8.03;;;7.40;99.90;;;;;;4897654;28;20546;-70
2020/12/21 00:45:11;;;;;;;14.90;9.23;;;7.40;99.90;;;;;;4902570;28;21052;-73
2020/12/21 00:47:37;;;;;;;16.93;9.83;;;7.40;99.90;;;;;;4917732;29;20795;-71
2020/12/21 00:50:04;;;;;;;12.93;8.70;;;7.40;99.90;;;;;;4915822;29;20337;-70
2020/12/21 00:52:30;;;;;;;12.00;7.73;;;7.40;99.90;;;;;;4899468;29;20468;-70
2020/12/21 00:54:56;;;;;;;12.47;7.53;;;7.40;99.90;;;;;;4911912;28;20489;-72
2020/12/21 00:57:21;;;;;;;15.70;7.83;;;7.30;99.90;;;;;;4885874;29;20224;-71
2020/12/21 00:59:47;;;;;;;10.97;8.13;;;7.30;99.90;;;;;;4889068;28;20223;-71
2020/12/21 01:02:13;;;;;;;8.33;7.33;;;7.30;99.90;;;;;;4909807;28;20291;-71
2020/12/21 01:04:38;;;;;;;9.10;6.17;;;7.30;99.90;;;;;;4908608;29;20494;-72
2020/12/21 01:07:05;;;;;;;11.87;7.00;;;7.30;99.90;;;;;;4921802;29;20227;-71
2020/12/21 01:09:30;;;;;;;16.10;7.70;;;7.30;99.90;;;;;;4920704;29;20224;-71
2020/12/21 01:11:56;;;;;;;17.23;9.37;;;7.30;99.90;;;;;;4920436;29;20470;-71
2020/12/21 01:14:22;;;;;;;14.90;8.90;;;7.20;99.90;;;;;;4888132;29;20263;-70
2020/12/21 01:16:47;;;;;;;14.47;8.70;;;7.20;99.90;;;;;;4904580;29;20302;-71
2020/12/21 01:19:13;;;;;;;14.50;9.37;;;7.20;99.90;;;;;;4902601;29;20270;-71
2020/12/21 01:21:39;;;;;;;17.57;9.20;;;7.20;99.90;;;;;;4914464;29;20224;-71
2020/12/21 01:24:05;;;;;;;12.90;8.00;;;7.20;99.90;;;;;;4900139;29;20246;-70
2020/12/21 01:26:31;;;;;;;23.97;10.10;;;7.20;99.90;;;;;;4908294;29;20973;-71
2020/12/21 01:28:57;;;;;;;15.10;8.40;;;7.20;99.90;;;;;;4895951;29;20697;-70
2020/12/21 01:31:23;;;;;;;18.33;8.97;;;7.20;99.90;;;;;;4933612;28;20275;-72
2020/12/21 01:33:50;;;;;;;15.70;8.07;;;7.20;99.90;;;;;;4914987;28;20305;-71
2020/12/21 01:36:20;;;;;;;12.53;7.30;;;7.10;99.90;;;;;;4919142;29;20447;-71
2020/12/21 01:38:46;;;;;;;17.10;9.30;;;7.10;99.90;;;;;;4903242;28;20452;-71
2020/12/21 01:41:12;;;;;;;21.20;10.70;;;7.10;99.90;;;;;;4919642;29;20456;-71
2020/12/21 01:43:38;;;;;;;20.73;11.10;;;7.00;99.90;;;;;;4905835;29;20521;-71
2020/12/21 01:46:13;;;;;;;18.87;10.43;;;7.00;99.90;;;;;;4936880;29;20667;-71
2020/12/21 01:48:39;;;;;;;26.20;12.60;;;7.00;99.90;;;;;;4924447;28;20687;-71
2020/12/21 01:51:05;;;;;;;34.27;17.50;;;7.00;99.90;;;;;;4936988;28;20458;-71
2020/12/21 01:53:36;;;;;;;27.43;12.70;;;7.00;99.90;;;;;;4929497;28;20472;-71
2020/12/21 01:56:06;;;;;;;11.63;6.93;;;7.00;99.90;;;;;;4942567;29;20464;-71
2020/12/21 01:58:34;;;;;;;9.10;5.60;;;7.00;99.90;;;;;;4921996;29;20462;-71
2020/12/21 02:01:03;;;;;;;8.00;5.50;;;7.00;99.90;;;;;;4890764;29;20455;-71
2020/12/21 02:03:28;;;;;;;7.40;5.40;;;7.00;99.90;;;;;;4919237;28;20543;-71
2020/12/21 02:05:54;;;;;;;7.37;5.77;;;7.00;99.90;;;;;;4917142;29;20850;-71
2020/12/21 02:08:20;;;;;;;8.50;6.00;;;7.00;99.90;;;;;;4920663;28;20220;-71
2020/12/21 02:10:46;;;;;;;6.60;5.10;;;7.00;99.90;;;;;;4932372;28;20496;-71
2020/12/21 02:13:12;;;;;;;6.97;5.23;;;7.00;99.90;;;;;;4901760;29;20227;-71
2020/12/21 02:15:37;;;;;;;6.77;5.20;;;7.00;99.90;;;;;;4950586;28;20219;-70
2020/12/21 02:18:03;;;;;;;9.30;5.60;;;6.90;99.90;;;;;;4916374;29;20703;-70
2020/12/21 02:20:32;;;;;;;7.37;5.30;;;6.90;99.90;;;;;;4917227;29;20227;-70
2020/12/21 02:22:59;;;;;;;7.27;5.47;;;6.90;99.90;;;;;;4917166;29;20228;-71
2020/12/21 02:25:25;;;;;;;6.23;4.77;;;6.80;99.90;;;;;;4932792;28;20476;-71
2020/12/21 02:27:51;;;;;;;7.80;5.00;;;6.80;99.90;;;;;;4920035;29;20452;-71
2020/12/21 02:30:16;;;;;;;7.00;5.30;;;6.80;99.90;;;;;;4920310;29;21035;-70
2020/12/21 02:32:42;;;;;;;11.70;5.57;;;6.80;99.90;;;;;;4924442;28;20227;-70
2020/12/21 02:35:09;;;;;;;5.60;4.80;;;6.80;99.90;;;;;;4947366;28;20224;-71
2020/12/21 02:37:35;;;;;;;6.37;4.77;;;6.80;99.90;;;;;;4916997;28;20460;-71
2020/12/21 02:40:00;;;;;;;7.47;4.57;;;6.80;99.90;;;;;;4914839;29;20985;-70
2020/12/21 02:42:26;;;;;;;8.07;5.50;;;6.80;99.90;;;;;;4908949;29;20467;-71
2020/12/21 02:44:52;;;;;;;9.70;5.77;;;6.80;99.90;;;;;;4904378;28;20239;-71
2020/12/21 02:47:18;;;;;;;8.27;6.20;;;6.80;99.90;;;;;;4906725;28;20224;-70
2020/12/21 02:49:43;;;;;;;10.77;6.87;;;6.80;99.90;;;;;;4928550;28;20787;-71
2020/12/21 02:52:09;;;;;;;11.67;8.90;;;6.80;99.90;;;;;;4901115;29;20228;-70
2020/12/21 02:54:35;;;;;;;21.43;10.73;;;6.80;99.90;;;;;;4898428;29;20290;-72
2020/12/21 02:57:00;;;;;;;11.97;8.03;;;6.70;99.90;;;;;;4904580;29;20225;-71
2020/12/21 02:59:26;;;;;;;7.27;6.10;;;6.70;99.90;;;;;;4920230;29;20743;-75
2020/12/21 03:01:52;;;;;;;8.90;6.30;;;6.70;99.90;;;;;;4922568;28;20237;-71
2020/12/21 03:04:17;;;;;;;7.57;5.97;;;6.70;99.90;;;;;;4930960;28;20311;-70
2020/12/21 03:06:43;;;;;;;7.50;5.63;;;6.70;99.90;;;;;;4905251;28;20254;-72
2020/12/21 03:09:09;;;;;;;11.33;7.03;;;6.70;99.90;;;;;;4916786;29;20275;-71
2020/12/21 03:11:34;;;;;;;8.00;5.50;;;6.70;99.90;;;;;;4881914;28;20235;-71
2020/12/21 03:14:00;;;;;;;5.07;4.20;;;6.70;99.90;;;;;;4906525;29;20235;-71
2020/12/21 03:16:25;;;;;;;7.50;4.70;;;6.70;99.90;;;;;;4912014;28;20224;-71
2020/12/21 03:18:51;;;;;;;6.83;4.30;;;6.70;99.90;;;;;;4913867;28;20219;-71
2020/12/21 03:21:17;;;;;;;5.27;3.80;;;6.70;99.90;;;;;;4952285;28;20697;-71
2020/12/21 03:23:43;;;;;;;6.47;4.53;;;6.70;99.90;;;;;;4920124;28;20235;-71
2020/12/21 03:26:09;;;;;;;7.67;5.40;;;6.70;99.90;;;;;;4930940;29;20227;-71
2020/12/21 03:28:35;;;;;;;7.67;5.20;;;6.70;99.90;;;;;;4887831;29;20471;-70
2020/12/21 03:31:01;;;;;;;5.10;3.97;;;6.60;99.90;;;;;;4918503;29;20452;-71
2020/12/21 03:33:27;;;;;;;8.00;4.00;;;6.70;99.90;;;;;;4926549;29;20231;-71
2020/12/21 03:35:52;;;;;;;3.57;3.17;;;6.60;99.90;;;;;;4945430;28;20219;-70
2020/12/21 03:38:18;;;;;;;4.77;3.60;;;6.60;99.90;;;;;;4913191;28;20302;-71
2020/12/21 03:40:44;;;;;;;3.97;3.47;;;6.60;99.90;;;;;;4918186;29;20238;-71
2020/12/21 03:43:09;;;;;;;5.87;4.40;;;6.60;99.90;;;;;;4925648;28;20318;-71
2020/12/21 03:45:35;;;;;;;3.20;2.90;;;6.60;99.90;;;;;;4918442;29;20231;-70
2020/12/21 03:48:01;;;;;;;4.83;3.50;;;6.50;99.90;;;;;;4919854;28;20368;-70
2020/12/21 03:50:27;;;;;;;4.33;3.30;;;6.50;99.90;;;;;;4889425;29;20487;-72
2020/12/21 03:52:53;;;;;;;4.73;3.03;;;6.50;99.90;;;;;;4902810;29;20250;-70
2020/12/21 03:55:19;;;;;;;5.83;4.10;;;6.50;99.90;;;;;;4902393;29;20985;-71
2020/12/21 03:57:44;;;;;;;6.90;4.17;;;6.50;99.90;;;;;;4920815;29;20686;-70
2020/12/21 04:00:10;;;;;;;7.00;4.37;;;6.50;99.90;;;;;;4903731;29;20696;-71
2020/12/21 04:02:39;;;;;;;4.00;3.00;;;6.50;99.90;;;;;;4900227;29;20716;-72
2020/12/21 04:05:05;;;;;;;5.43;3.77;;;6.40;99.90;;;;;;4900729;29;20465;-72
2020/12/21 04:07:31;;;;;;;4.70;3.40;;;6.40;99.90;;;;;;4912048;29;20228;-70
2020/12/21 04:09:57;;;;;;;4.40;3.00;;;6.40;99.90;;;;;;4929933;29;20231;-70
2020/12/21 04:12:22;;;;;;;4.40;3.70;;;6.40;99.90;;;;;;4895462;29;20471;-71
2020/12/21 04:14:48;;;;;;;6.50;4.40;;;6.40;99.90;;;;;;4912856;29;20299;-70
2020/12/21 04:17:14;;;;;;;5.53;3.70;;;6.40;99.90;;;;;;4900680;29;20252;-73
2020/12/21 04:19:39;;;;;;;6.27;4.23;;;6.20;99.90;;;;;;4902943;29;20231;-71
2020/12/21 04:22:05;;;;;;;5.20;4.37;;;6.20;99.90;;;;;;4913474;29;20709;-70
2020/12/21 04:24:31;;;;;;;3.73;3.33;;;6.20;99.90;;;;;;4902487;29;20220;-71
2020/12/21 04:26:56;;;;;;;4.80;3.87;;;6.20;99.90;;;;;;4902659;29;20226;-70
2020/12/21 04:29:22;;;;;;;6.60;4.20;;;6.20;99.90;;;;;;4883775;29;20223;-71
2020/12/21 04:31:53;;;;;;;5.67;3.83;;;6.00;99.90;;;;;;4891872;29;20224;-70
2020/12/21 04:34:18;;;;;;;5.73;4.10;;;6.10;99.90;;;;;;4895468;29;20689;-72
2020/12/21 04:36:44;;;;;;;5.17;3.60;;;6.10;99.90;;;;;;4925885;29;20467;-71
2020/12/21 04:39:10;;;;;;;5.60;3.63;;;6.10;99.90;;;;;;4900616;29;20246;-71
2020/12/21 04:41:35;;;;;;;5.73;3.67;;;6.00;99.90;;;;;;4898541;29;20589;-71
2020/12/21 04:44:02;;;;;;;3.90;3.57;;;6.00;99.90;;;;;;4927048;29;20660;-71
2020/12/21 04:46:28;;;;;;;5.87;3.40;;;6.10;99.90;;;;;;4929318;29;20255;-72
2020/12/21 04:48:58;;;;;;;3.30;3.00;;;6.10;99.90;;;;;;4911257;29;20832;-70
2020/12/21 04:51:34;;;;;;;4.37;3.50;;;6.10;99.90;;;;;;4910359;29;20460;-71
2020/12/21 04:53:59;;;;;;;6.30;3.43;;;6.10;99.90;;;;;;4896249;29;20459;-71
2020/12/21 04:56:25;;;;;;;4.93;3.70;;;6.10;99.90;;;;;;4924314;29;20542;-71
2020/12/21 04:58:51;;;;;;;4.40;3.80;;;6.10;99.90;;;;;;4926269;29;20223;-70
2020/12/21 05:01:17;;;;;;;4.70;3.90;;;6.10;99.90;;;;;;4913687;29;20239;-71
2020/12/21 05:03:49;;;;;;;4.07;3.70;;;6.10;99.90;;;;;;4901708;29;20232;-70
2020/12/21 05:06:15;;;;;;;4.77;3.17;;;6.10;99.90;;;;;;4933661;29;20319;-70
2020/12/21 05:08:44;;;;;;;3.83;3.30;;;6.10;99.90;;;;;;4920064;29;20470;-71
2020/12/21 05:11:10;;;;;;;3.57;3.20;;;6.10;99.90;;;;;;4922335;29;20492;-70
2020/12/21 05:13:35;;;;;;;3.80;3.00;;;6.10;99.90;;;;;;4906081;29;20471;-70
2020/12/21 05:16:02;;;;;;;3.80;3.37;;;6.10;99.90;;;;;;4906619;29;20448;-70
2020/12/21 05:18:34;;;;;;;3.80;3.27;;;6.00;99.90;;;;;;4922413;29;20219;-71
2020/12/21 05:21:08;;;;;;;4.23;3.57;;;6.00;99.90;;;;;;4922061;29;20546;-70
2020/12/21 05:23:34;;;;;;;3.47;2.67;;;6.00;99.90;;;;;;4937221;29;20475;-70
2020/12/21 05:26:01;;;;;;;4.47;3.40;;;6.00;99.90;;;;;;4937686;29;20459;-71
2020/12/21 05:28:28;;;;;;;4.73;3.47;;;6.00;99.90;;;;;;4922186;29;20517;-71
2020/12/21 05:30:56;;;;;;;3.90;3.50;;;6.00;99.90;;;;;;4905334;29;20456;-72
2020/12/21 05:33:23;;;;;;;4.27;3.30;;;6.00;99.90;;;;;;4921790;29;20471;-72
2020/12/21 05:35:50;;;;;;;3.87;3.43;;;6.00;99.90;;;;;;4905462;29;20444;-71
2020/12/21 05:38:24;;;;;;;3.80;3.40;;;6.00;99.90;;;;;;4921277;29;20468;-72
2020/12/21 05:40:50;;;;;;;5.33;3.87;;;6.00;99.90;;;;;;4905456;29;20443;-71
2020/12/21 05:43:27;;;;;;;5.20;3.57;;;6.00;99.90;;;;;;4937159;29;20875;-71
2020/12/21 05:46:06;;;;;;;5.47;4.10;;;6.00;99.90;;;;;;4886669;29;20451;-71
2020/12/21 05:48:41;;;;;;;6.60;3.87;;;5.90;99.90;;;;;;4919646;28;20470;-72
2020/12/21 05:51:09;;;;;;;5.63;4.37;;;6.00;99.90;;;;;;4937410;29;20459;-71
2020/12/21 05:53:43;;;;;;;4.77;3.33;;;5.90;99.90;;;;;;4920324;28;20546;-71
2020/12/21 05:56:10;;;;;;;6.43;3.97;;;5.90;99.90;;;;;;4921636;29;20976;-71
2020/12/21 05:58:41;;;;;;;5.43;3.93;;;5.90;99.90;;;;;;4921064;28;20459;-71
2020/12/21 06:01:11;;;;;;;4.27;3.87;;;5.90;99.90;;;;;;4918383;29;20480;-71
2020/12/21 06:03:38;;;;;;;4.53;3.67;;;5.80;99.90;;;;;;4886395;29;20571;-71
2020/12/21 06:06:13;;;;;;;4.97;3.77;;;5.80;99.90;;;;;;4920875;29;20452;-71
2020/12/21 06:08:40;;;;;;;5.20;3.70;;;5.80;99.90;;;;;;4921082;29;20470;-71
2020/12/21 06:11:11;;;;;;;4.17;3.50;;;5.80;99.90;;;;;;4936563;29;21088;-71
2020/12/21 06:13:40;;;;;;;3.70;2.90;;;5.80;99.90;;;;;;4919429;29;20475;-71
2020/12/21 06:16:06;;;;;;;4.63;3.70;;;5.80;99.90;;;;;;4939018;28;20451;-71
2020/12/21 06:18:32;;;;;;;4.60;4.10;;;5.80;99.90;;;;;;4933914;28;20509;-71
2020/12/21 06:20:58;;;;;;;3.53;3.23;;;5.80;99.90;;;;;;4940006;28;20451;-71
2020/12/21 06:23:37;;;;;;;4.10;3.03;;;5.80;99.90;;;;;;4955927;28;20231;-71
2020/12/21 06:26:10;;;;;;;4.10;3.60;;;5.80;99.90;;;;;;4940316;28;20214;-71
2020/12/21 06:28:36;;;;;;;2.70;2.50;;;5.80;99.90;;;;;;4939616;28;20466;-71
2020/12/21 06:31:17;;;;;;;4.03;3.27;;;5.80;99.90;;;;;;4956145;28;20457;-71
2020/12/21 06:33:44;;;;;;;3.20;2.90;;;5.80;99.90;;;;;;4939535;28;20474;-71
2020/12/21 06:36:11;;;;;;;3.40;2.70;;;5.80;99.90;;;;;;4932458;29;20459;-72
2020/12/21 06:38:48;;;;;;;3.03;2.73;;;5.80;99.90;;;;;;4920468;29;20460;-71
2020/12/21 06:41:19;;;;;;;2.53;2.33;;;5.80;99.90;;;;;;4920835;28;20564;-72
2020/12/21 06:44:02;;;;;;;7.43;3.57;;;5.70;99.90;;;;;;4919910;29;20468;-71
2020/12/21 06:46:28;;;;;;;5.53;3.50;;;5.60;99.90;;;;;;4920152;29;20554;-71
2020/12/21 06:49:13;;;;;;;5.50;4.07;;;5.60;99.90;;;;;;4902788;29;20460;-71
2020/12/21 06:51:43;;;;;;;7.30;5.20;;;5.70;99.90;;;;;;4900662;29;20479;-71
2020/12/21 06:54:10;;;;;;;6.30;4.40;;;5.70;99.90;;;;;;4901806;29;20461;-71
2020/12/21 06:56:37;;;;;;;4.47;3.40;;;5.70;99.90;;;;;;4919765;28;20530;-71
2020/12/21 06:59:09;;;;;;;9.37;4.37;;;5.70;99.90;;;;;;4936458;29;20466;-71
2020/12/21 07:01:36;;;;;;;7.07;4.00;;;5.70;99.90;;;;;;4919507;28;20500;-71
2020/12/21 07:04:02;;;;;;;9.43;4.43;;;5.70;99.90;;;;;;4904643;29;20466;-71
2020/12/21 07:06:27;;;;;;;6.10;4.40;;;5.70;99.90;;;;;;4920212;29;20460;-71
2020/12/21 07:08:59;;;;;;;6.53;3.63;;;5.70;99.90;;;;;;4905693;29;20299;-71
2020/12/21 07:11:25;;;;;;;6.03;4.30;;;5.70;99.90;;;;;;4935549;29;20739;-71
2020/12/21 07:13:51;;;;;;;7.20;4.40;;;5.70;99.90;;;;;;4906610;29;20452;-71
2020/12/21 07:16:18;;;;;;;8.97;5.50;;;5.70;99.90;;;;;;4936849;28;20456;-71
2020/12/21 07:18:45;;;;;;;5.57;4.00;;;5.70;99.90;;;;;;4932780;28;20462;-71
2020/12/21 07:21:11;;;;;;;7.43;5.17;;;5.70;99.90;;;;;;4919945;29;20453;-71
2020/12/21 07:23:44;;;;;;;6.30;3.70;;;5.70;99.90;;;;;;4915962;29;20475;-71
2020/12/21 07:26:12;;;;;;;9.23;4.60;;;5.70;99.90;;;;;;4930435;29;20460;-71
2020/12/21 07:28:38;;;;;;;5.10;4.43;;;5.70;99.90;;;;;;4919562;28;20452;-71
2020/12/21 07:31:08;;;;;;;7.00;4.03;;;5.70;99.90;;;;;;4903676;29;20872;-71
2020/12/21 07:33:35;;;;;;;5.80;4.13;;;5.70;99.90;;;;;;4919281;29;20665;-71
2020/12/21 07:36:02;;;;;;;5.43;4.13;;;5.70;99.90;;;;;;4919905;29;20460;-71
2020/12/21 07:38:28;;;;;;;5.50;3.97;;;5.70;99.90;;;;;;4918238;29;20558;-71
2020/12/21 07:40:54;;;;;;;3.63;3.27;;;5.70;99.90;;;;;;4915666;29;20938;-71
2020/12/21 07:43:35;;;;;;;3.67;3.33;;;5.80;99.90;;;;;;4901875;29;20236;-72
2020/12/21 07:46:09;;;;;;;4.07;3.63;;;5.70;99.90;;;;;;4919926;29;20467;-71
2020/12/21 07:48:35;;;;;;;5.13;3.97;;;5.80;99.90;;;;;;4934435;28;20554;-71
2020/12/21 07:51:03;;;;;;;5.80;3.90;;;5.80;99.90;;;;;;4919315;29;20542;-71
2020/12/21 07:53:35;;;;;;;4.43;4.03;;;5.80;99.90;;;;;;4923406;29;20468;-71
2020/12/21 07:56:01;;;;;;;5.67;4.30;;;5.80;99.90;;;;;;4901395;29;20902;-71
2020/12/21 07:58:27;;;;;;;4.67;3.67;;;5.80;99.90;;;;;;4925965;29;20495;-71
2020/12/21 08:00:57;;;;;;;6.20;4.00;;;5.80;99.90;;;;;;4934354;29;20258;-72
2020/12/21 08:03:25;;;;;;;7.27;4.23;;;5.80;99.90;;;;;;4918929;29;20640;-72
2020/12/21 08:06:02;;;;;;;6.17;4.23;;;5.80;99.90;;;;;;4903525;29;20545;-71
2020/12/21 08:08:28;;;;;;;7.30;4.23;;;5.80;99.90;;;;;;4921820;29;20510;-71
2020/12/21 08:10:58;;;;;;;6.50;4.20;;;5.80;99.90;;;;;;4887312;29;20460;-71
2020/12/21 08:13:24;;;;;;;4.80;4.00;;;5.80;99.90;;;;;;4918253;29;20644;-71
2020/12/21 08:15:50;;;;;;;6.67;4.23;;;5.80;99.90;;;;;;4903159;28;20460;-72
2020/12/21 08:18:15;;;;;;;5.27;3.97;;;5.80;99.90;;;;;;4918429;29;20327;-71
2020/12/21 08:20:51;;;;;;;6.40;4.20;;;5.80;99.90;;;;;;4917855;28;20231;-71
2020/12/21 08:23:24;;;;;;;7.80;4.00;;;5.80;99.90;;;;;;4918699;29;20279;-71
2020/12/21 08:25:50;;;;;;;6.40;3.70;;;5.80;99.90;;;;;;4934803;28;20455;-71
2020/12/21 08:28:58;;;;;;;3.77;3.40;;;5.80;99.90;;;;;;4915497;29;20491;-71
2020/12/21 08:31:24;;;;;;;4.00;3.03;;;5.80;99.90;;;;;;4899859;29;20271;-71
2020/12/21 08:34:04;;;;;;;5.70;2.90;;;5.80;99.90;;;;;;4897743;29;20467;-73
2020/12/21 08:36:37;;;;;;;3.83;3.47;;;5.90;99.90;;;;;;4926066;28;20463;-72
2020/12/21 08:39:18;;;;;;;4.10;3.47;;;5.90;99.90;;;;;;4907219;29;20459;-71
2020/12/21 08:41:54;;;;;;;5.63;4.00;;;5.90;99.90;;;;;;4937946;29;20466;-71
2020/12/21 08:44:27;;;;;;;5.07;3.17;;;5.90;99.90;;;;;;4938752;29;20485;-71
2020/12/21 08:46:55;;;;;;;4.00;3.60;;;5.90;99.90;;;;;;4906538;29;20450;-71
2020/12/21 08:49:22;;;;;;;4.43;3.97;;;5.90;99.90;;;;;;4907334;29;20460;-71
2020/12/21 08:51:49;;;;;;;6.87;4.60;;;5.90;99.90;;;;;;4925121;29;20480;-71
2020/12/21 08:54:15;;;;;;;5.20;4.07;;;5.90;99.90;;;;;;4919618;29;20509;-71
2020/12/21 08:56:53;;;;;;;5.60;4.37;;;5.90;99.90;;;;;;4929582;28;20466;-71
2020/12/21 08:59:19;;;;;;;6.20;4.70;;;5.90;99.90;;;;;;4923025;29;20885;-71
2020/12/21 09:01:45;;;;;;;7.73;5.00;;;5.90;99.90;;;;;;4917697;29;20456;-71
2020/12/21 09:04:12;;;;;;;5.10;4.57;;;5.90;99.90;;;;;;4919354;29;20468;-71
2020/12/21 09:06:38;;;;;;;6.33;4.70;;;5.90;99.90;;;;;;4903077;29;20467;-71
2020/12/21 09:09:05;;;;;;;7.10;5.30;;;5.90;99.90;;;;;;4922121;29;20517;-71
2020/12/21 09:11:31;;;;;;;11.03;5.40;;;6.00;99.90;;;;;;4887218;29;20484;-70
2020/12/21 09:13:56;;;;;;;9.20;6.30;;;5.90;99.90;;;;;;4887602;29;20480;-70
2020/12/21 09:16:27;;;;;;;8.87;6.10;;;5.90;99.90;;;;;;4903516;29;20263;-70
2020/12/21 09:18:54;;;;;;;8.37;5.57;;;6.00;99.90;;;;;;4903199;29;20565;-71
2020/12/21 09:21:28;;;;;;;6.57;5.20;;;6.00;99.90;;;;;;4903220;29;20838;-71
2020/12/21 09:23:56;;;;;;;5.33;4.83;;;6.00;99.90;;;;;;4918591;29;20499;-71
2020/12/21 09:26:22;;;;;;;6.73;4.77;;;6.00;99.90;;;;;;4934881;29;20539;-72
2020/12/21 09:28:50;;;;;;;5.40;4.60;;;6.00;99.90;;;;;;4921323;29;20467;-70
2020/12/21 09:31:17;;;;;;;4.63;3.83;;;6.00;99.90;;;;;;4921921;29;20468;-71
2020/12/21 09:33:43;;;;;;;6.80;4.60;;;6.00;99.90;;;;;;4921254;29;20474;-71
2020/12/21 09:36:09;;;;;;;5.97;4.57;;;6.00;99.90;;;;;;4937906;29;20474;-71
2020/12/21 09:38:36;;;;;;;6.27;3.83;;;6.00;99.90;;;;;;4905214;29;20542;-70
2020/12/21 09:41:02;;;;;;;5.10;3.97;;;6.00;99.90;;;;;;4918461;29;20453;-70
2020/12/21 09:43:28;;;;;;;3.90;3.30;;;6.10;99.90;;;;;;4933424;29;20475;-71
2020/12/21 09:45:54;;;;;;;4.20;3.80;;;6.10;99.90;;;;;;4936032;28;20458;-70
2020/12/21 09:48:20;;;;;;;4.50;3.63;;;6.10;99.90;;;;;;4914488;28;20585;-71
2020/12/21 09:50:46;;;;;;;4.83;3.70;;;6.10;99.90;;;;;;4929844;28;20484;-70
2020/12/21 09:53:11;;;;;;;5.50;4.07;;;6.10;99.90;;;;;;4928327;28;20551;-71
2020/12/21 09:55:38;;;;;;;4.40;3.93;;;6.10;99.90;;;;;;4919367;29;20712;-71
2020/12/21 09:58:05;;;;;;;4.37;3.60;;;6.10;99.90;;;;;;4886557;29;20232;-70
2020/12/21 10:00:30;;;;;;;5.70;3.97;;;6.10;99.90;;;;;;4924839;29;20841;-70
2020/12/21 10:02:56;;;;;;;7.87;4.50;;;6.10;99.90;;;;;;4920016;29;20470;-72
2020/12/21 10:05:22;;;;;;;5.50;4.60;;;6.10;99.90;;;;;;4920315;29;20594;-72
2020/12/21 10:07:47;;;;;;;7.23;5.00;;;6.10;99.90;;;;;;4919569;29;20254;-72
2020/12/21 10:10:13;;;;;;;13.87;6.37;;;6.20;99.90;;;;;;4904297;29;20220;-72
2020/12/21 10:12:39;;;;;;;11.27;5.90;;;6.20;99.90;;;;;;4919615;29;20232;-71
2020/12/21 10:15:05;;;;;;;8.87;5.23;;;6.20;99.90;;;;;;4920508;29;20843;-73
2020/12/21 10:17:30;;;;;;;4.20;3.77;;;6.20;99.90;;;;;;4904261;29;20715;-73
2020/12/21 10:19:56;;;;;;;7.87;4.97;;;6.20;99.90;;;;;;4935446;29;20468;-72
2020/12/21 10:22:22;;;;;;;5.53;4.60;;;6.20;99.90;;;;;;4917082;29;20237;-72
2020/12/21 10:24:48;;;;;;;7.43;4.93;;;6.20;99.90;;;;;;4885105;29;20533;-71
2020/12/21 10:27:13;;;;;;;5.30;3.97;;;6.20;99.90;;;;;;4894180;29;20304;-72
2020/12/21 10:29:39;;;;;;;7.13;4.20;;;6.20;99.90;;;;;;4919635;29;20235;-72
2020/12/21 10:32:05;;;;;;;5.93;4.23;;;6.30;99.90;;;;;;4935192;28;20299;-72
2020/12/21 10:34:31;;;;;;;11.60;7.73;;;6.30;99.90;;;;;;4907881;29;20536;-72
2020/12/21 10:36:57;;;;;;;13.97;8.30;;;6.30;99.90;;;;;;4904285;29;20278;-72
2020/12/21 10:39:23;;;;;;;14.43;9.70;;;6.30;99.90;;;;;;4935411;29;20549;-72
2020/12/21 10:41:49;;;;;;;19.53;11.90;;;6.30;99.90;;;;;;4918821;29;20220;-72
2020/12/21 10:44:15;;;;;;;14.40;9.40;;;6.30;99.90;;;;;;4935185;29;20705;-72
2020/12/21 10:46:42;;;;;;;12.93;8.47;;;6.40;99.90;;;;;;4952070;29;20685;-72
2020/12/21 10:49:09;;;;;;;9.93;7.60;;;6.40;99.90;;;;;;4935384;29;20538;-72
2020/12/21 10:51:35;;;;;;;10.70;8.50;;;6.40;99.90;;;;;;4914519;29;20460;-72
2020/12/21 10:54:02;;;;;;;13.20;8.97;;;6.40;99.90;;;;;;4900503;29;20464;-72
2020/12/21 10:56:28;;;;;;;11.10;7.70;;;6.50;99.90;;;;;;4901335;28;20464;-73
2020/12/21 10:58:55;;;;;;;10.90;8.50;;;6.50;99.90;;;;;;4918575;29;20448;-72
2020/12/21 11:01:22;;;;;;;11.67;6.97;;;6.50;99.90;;;;;;4913287;28;603452;-71
2020/12/21 11:03:48;;;;;;;8.90;6.80;;;6.50;99.90;;;;;;4919883;29;20478;-71
2020/12/21 11:06:22;;;;;;;9.70;6.77;;;6.50;99.90;;;;;;4920286;29;21032;-72
2020/12/21 11:08:48;;;;;;;9.97;5.57;;;6.50;99.90;;;;;;4915730;29;20496;-72
2020/12/21 11:11:14;;;;;;;10.93;6.80;;;6.60;99.90;;;;;;4932008;29;20542;-72
2020/12/21 11:13:42;;;;;;;7.83;5.37;;;6.60;99.90;;;;;;4899114;29;20547;-72
2020/12/21 11:16:10;;;;;;;7.50;5.63;;;6.60;99.90;;;;;;4916891;29;20228;-72
2020/12/21 11:18:37;;;;;;;13.07;7.17;;;6.60;99.90;;;;;;4900625;29;20876;-72
2020/12/21 11:21:03;;;;;;;12.20;7.60;;;6.60;99.90;;;;;;4914317;29;20981;-72
2020/12/21 11:23:28;;;;;;;9.27;5.70;;;6.70;99.90;;;;;;4884928;29;20476;-72
2020/12/21 11:25:54;;;;;;;9.17;5.90;;;6.70;99.90;;;;;;4884285;29;21033;-72
2020/12/21 11:28:20;;;;;;;12.00;7.20;;;6.70;99.90;;;;;;4903234;29;20223;-72
2020/12/21 11:30:45;;;;;;;12.73;7.90;;;6.70;99.90;;;;;;4902394;28;20235;-72
2020/12/21 11:33:11;;;;;;;10.80;6.40;;;6.80;99.90;;;;;;4900052;29;20316;-72
2020/12/21 11:35:36;;;;;;;10.30;6.80;;;6.80;99.90;;;;;;4903256;29;20227;-72
2020/12/21 11:38:02;;;;;;;11.23;6.93;;;6.80;99.90;;;;;;4888155;29;20234;-72
2020/12/21 11:40:28;;;;;;;8.33;6.63;;;6.80;99.90;;;;;;4903688;29;20239;-72
2020/12/21 11:42:53;;;;;;;11.10;6.60;;;6.80;99.90;;;;;;4902675;29;20226;-72
2020/12/21 11:45:19;;;;;;;10.53;7.20;;;6.90;99.90;;;;;;4917575;29;20248;-72
2020/12/21 11:47:46;;;;;;;10.87;5.97;;;6.90;99.90;;;;;;4918838;28;20291;-72
2020/12/21 11:50:11;;;;;;;9.43;5.90;;;6.90;99.90;;;;;;4892401;29;20240;-72
2020/12/21 11:52:38;;;;;;;9.23;6.77;;;7.00;99.90;;;;;;4884141;29;20492;-70
2020/12/21 11:55:04;;;;;;;8.63;5.80;;;7.00;99.90;;;;;;4900449;29;20275;-70
2020/12/21 11:57:30;;;;;;;7.87;5.77;;;7.00;99.90;;;;;;4909767;29;20485;-70
2020/12/21 11:59:56;;;;;;;10.60;6.60;;;7.00;99.90;;;;;;4919172;29;20224;-70
2020/12/21 12:02:22;;;;;;;12.63;7.70;;;7.00;99.90;;;;;;4903608;29;20251;-70
2020/12/21 12:04:48;;;;;;;13.53;8.30;;;7.10;99.90;;;;;;4903031;28;20216;-72
2020/12/21 12:07:14;;;;;;;10.10;7.30;;;7.10;99.90;;;;;;4917664;29;20219;-72
2020/12/21 12:09:39;;;;;;;12.73;7.87;;;7.10;99.90;;;;;;4901270;28;20518;-72
2020/12/21 12:12:05;;;;;;;13.07;9.07;;;7.10;99.90;;;;;;4900168;28;20216;-71
2020/12/21 12:14:31;;;;;;;16.57;8.50;;;7.10;99.90;;;;;;4908179;29;20316;-73
2020/12/21 12:16:57;;;;;;;9.73;7.10;;;7.20;99.90;;;;;;4916564;28;20227;-72
2020/12/21 12:19:26;;;;;;;13.33;8.53;;;7.20;99.90;;;;;;4917447;29;20224;-73
2020/12/21 12:21:53;;;;;;;12.97;8.07;;;7.20;99.90;;;;;;4917764;28;20594;-73
2020/12/21 12:24:18;;;;;;;13.50;8.00;;;7.30;99.90;;;;;;4916138;29;20519;-73
2020/12/21 12:26:44;;;;;;;13.07;8.57;;;7.30;99.90;;;;;;4898761;29;20539;-72
2020/12/21 12:29:11;;;;;;;12.80;8.80;;;7.30;99.90;;;;;;4899785;29;20220;-72
2020/12/21 12:31:37;;;;;;;31.87;15.47;;;7.30;99.90;;;;;;4913192;28;20455;-71
2020/12/21 12:34:03;;;;;;;27.60;12.10;;;7.30;99.90;;;;;;4918267;29;20462;-72
2020/12/21 12:36:28;;;;;;;17.57;10.77;;;7.30;99.90;;;;;;4940262;28;20216;-72
2020/12/21 12:38:55;;;;;;;19.00;9.93;;;7.40;99.90;;;;;;4935217;28;20486;-71
2020/12/21 12:41:22;;;;;;;20.13;9.77;;;7.40;99.90;;;;;;4908667;29;20708;-72
2020/12/21 12:43:48;;;;;;;19.20;11.37;;;7.40;99.90;;;;;;4917641;29;20471;-71
2020/12/21 12:46:14;;;;;;;22.37;11.53;;;7.50;99.90;;;;;;4951733;28;20455;-71
2020/12/21 12:48:40;;;;;;;25.20;11.83;;;7.50;99.90;;;;;;4917198;28;20231;-71
2020/12/21 12:51:09;;;;;;;19.20;11.87;;;7.50;99.90;;;;;;4902856;28;20231;-72
2020/12/21 12:53:34;;;;;;;28.83;12.97;;;7.50;99.90;;;;;;4916017;28;20315;-72